sensor_id;sensor_type;location;lat;lon;timestamp;P1;durP1;ratioP1;P2;durP2;ratioP2
10605;SDS011;5350;42.698;23.148;2024-02-15T00:00:15;7.17;;;5.63;;
10605;SDS011;5350;42.698;23.148;2024-02-15T00:02:42;7.00;;;5.30;;
10605;SDS011;5350;42.698;23.148;2024-02-15T00:05:11;6.67;;;5.43;;
10605;SDS011;5350;42.698;23.148;2024-02-15T00:07:40;8.47;;;6.40;;
10605;SDS011;5350;42.698;23.148;2024-02-15T00:10:09;7.50;;;5.27;;
10605;SDS011;5350;42.698;23.148;2024-02-15T00:12:36;6.93;;;5.50;;
10605;SDS011;5350;42.698;23.148;2024-02-15T00:15:03;7.67;;;5.47;;
10605;SDS011;5350;42.698;23.148;2024-02-15T00:17:31;6.93;;;5.73;;
10605;SDS011;5350;42.698;23.148;2024-02-15T00:19:58;7.40;;;5.63;;
10605;SDS011;5350;42.698;23.148;2024-02-15T00:22:26;10.20;;;5.87;;
10605;SDS011;5350;42.698;23.148;2024-02-15T00:24:53;7.37;;;5.67;;
10605;SDS011;5350;42.698;23.148;2024-02-15T00:27:19;7.47;;;5.43;;
10605;SDS011;5350;42.698;23.148;2024-02-15T00:29:46;5.93;;;4.70;;
10605;SDS011;5350;42.698;23.148;2024-02-15T00:32:13;7.90;;;4.87;;
10605;SDS011;5350;42.698;23.148;2024-02-15T00:34:39;6.60;;;5.37;;
10605;SDS011;5350;42.698;23.148;2024-02-15T00:37:06;7.30;;;5.30;;
10605;SDS011;5350;42.698;23.148;2024-02-15T00:39:34;8.27;;;5.40;;
10605;SDS011;5350;42.698;23.148;2024-02-15T00:42:01;6.90;;;5.50;;
10605;SDS011;5350;42.698;23.148;2024-02-15T00:44:28;7.60;;;5.70;;
10605;SDS011;5350;42.698;23.148;2024-02-15T00:46:55;9.97;;;5.90;;
10605;SDS011;5350;42.698;23.148;2024-02-15T00:49:22;9.90;;;7.70;;
10605;SDS011;5350;42.698;23.148;2024-02-15T00:51:51;8.07;;;5.23;;
10605;SDS011;5350;42.698;23.148;2024-02-15T00:54:17;6.30;;;5.30;;
10605;SDS011;5350;42.698;23.148;2024-02-15T00:56:45;7.03;;;5.57;;
10605;SDS011;5350;42.698;23.148;2024-02-15T00:59:12;6.73;;;5.47;;
10605;SDS011;5350;42.698;23.148;2024-02-15T01:01:39;6.63;;;5.13;;
10605;SDS011;5350;42.698;23.148;2024-02-15T01:04:06;7.53;;;5.43;;
10605;SDS011;5350;42.698;23.148;2024-02-15T01:06:32;7.80;;;5.63;;
10605;SDS011;5350;42.698;23.148;2024-02-15T01:08:59;9.00;;;6.10;;
10605;SDS011;5350;42.698;23.148;2024-02-15T01:11:28;8.47;;;5.70;;
10605;SDS011;5350;42.698;23.148;2024-02-15T01:13:56;7.90;;;5.43;;
10605;SDS011;5350;42.698;23.148;2024-02-15T01:16:23;6.83;;;5.87;;
10605;SDS011;5350;42.698;23.148;2024-02-15T01:18:50;6.43;;;5.47;;
10605;SDS011;5350;42.698;23.148;2024-02-15T01:21:16;15.27;;;11.93;;
10605;SDS011;5350;42.698;23.148;2024-02-15T01:23:44;8.10;;;7.00;;
10605;SDS011;5350;42.698;23.148;2024-02-15T01:26:11;7.83;;;5.97;;
10605;SDS011;5350;42.698;23.148;2024-02-15T01:28:39;8.77;;;5.73;;
10605;SDS011;5350;42.698;23.148;2024-02-15T01:31:09;9.70;;;6.13;;
10605;SDS011;5350;42.698;23.148;2024-02-15T01:33:36;8.60;;;5.47;;
10605;SDS011;5350;42.698;23.148;2024-02-15T01:36:03;5.93;;;5.33;;
10605;SDS011;5350;42.698;23.148;2024-02-15T01:38:31;7.80;;;5.63;;
10605;SDS011;5350;42.698;23.148;2024-02-15T01:40:57;7.53;;;5.73;;
10605;SDS011;5350;42.698;23.148;2024-02-15T01:43:24;8.80;;;5.97;;
10605;SDS011;5350;42.698;23.148;2024-02-15T01:45:51;6.67;;;5.53;;
10605;SDS011;5350;42.698;23.148;2024-02-15T01:48:19;7.07;;;5.83;;
10605;SDS011;5350;42.698;23.148;2024-02-15T01:50:46;7.97;;;5.80;;
10605;SDS011;5350;42.698;23.148;2024-02-15T01:53:13;6.83;;;5.53;;
10605;SDS011;5350;42.698;23.148;2024-02-15T01:55:40;8.50;;;6.60;;
10605;SDS011;5350;42.698;23.148;2024-02-15T01:58:07;8.87;;;6.10;;
10605;SDS011;5350;42.698;23.148;2024-02-15T02:00:34;10.50;;;6.40;;
10605;SDS011;5350;42.698;23.148;2024-02-15T02:03:02;8.50;;;5.83;;
10605;SDS011;5350;42.698;23.148;2024-02-15T02:05:32;6.30;;;5.37;;
10605;SDS011;5350;42.698;23.148;2024-02-15T02:07:59;7.53;;;6.00;;
10605;SDS011;5350;42.698;23.148;2024-02-15T02:10:29;8.43;;;6.20;;
10605;SDS011;5350;42.698;23.148;2024-02-15T02:12:57;8.33;;;5.63;;
10605;SDS011;5350;42.698;23.148;2024-02-15T02:15:25;7.00;;;6.23;;
10605;SDS011;5350;42.698;23.148;2024-02-15T02:17:53;13.60;;;7.37;;
10605;SDS011;5350;42.698;23.148;2024-02-15T02:20:19;9.13;;;6.40;;
10605;SDS011;5350;42.698;23.148;2024-02-15T02:22:48;9.00;;;5.87;;
10605;SDS011;5350;42.698;23.148;2024-02-15T02:25:21;10.83;;;7.03;;
10605;SDS011;5350;42.698;23.148;2024-02-15T02:27:51;9.00;;;6.87;;
10605;SDS011;5350;42.698;23.148;2024-02-15T02:30:18;6.50;;;5.63;;
10605;SDS011;5350;42.698;23.148;2024-02-15T02:32:47;15.73;;;10.33;;
10605;SDS011;5350;42.698;23.148;2024-02-15T02:35:14;11.13;;;7.30;;
10605;SDS011;5350;42.698;23.148;2024-02-15T02:37:41;10.67;;;6.63;;
10605;SDS011;5350;42.698;23.148;2024-02-15T02:40:09;13.27;;;9.07;;
10605;SDS011;5350;42.698;23.148;2024-02-15T02:42:47;9.87;;;6.20;;
10605;SDS011;5350;42.698;23.148;2024-02-15T02:45:15;9.57;;;6.10;;
10605;SDS011;5350;42.698;23.148;2024-02-15T02:47:41;8.73;;;5.73;;
10605;SDS011;5350;42.698;23.148;2024-02-15T02:50:08;7.93;;;6.53;;
10605;SDS011;5350;42.698;23.148;2024-02-15T02:52:35;8.23;;;6.10;;
10605;SDS011;5350;42.698;23.148;2024-02-15T02:55:04;11.37;;;7.27;;
10605;SDS011;5350;42.698;23.148;2024-02-15T02:57:33;8.80;;;6.60;;
10605;SDS011;5350;42.698;23.148;2024-02-15T03:00:01;22.80;;;14.17;;
10605;SDS011;5350;42.698;23.148;2024-02-15T03:02:32;9.83;;;6.63;;
10605;SDS011;5350;42.698;23.148;2024-02-15T03:05:00;9.60;;;5.87;;
10605;SDS011;5350;42.698;23.148;2024-02-15T03:07:28;8.33;;;6.33;;
10605;SDS011;5350;42.698;23.148;2024-02-15T03:09:54;7.10;;;5.77;;
10605;SDS011;5350;42.698;23.148;2024-02-15T03:12:21;8.63;;;6.60;;
10605;SDS011;5350;42.698;23.148;2024-02-15T03:14:47;7.77;;;6.47;;
10605;SDS011;5350;42.698;23.148;2024-02-15T03:17:15;7.50;;;6.20;;
10605;SDS011;5350;42.698;23.148;2024-02-15T03:19:42;6.80;;;6.10;;
10605;SDS011;5350;42.698;23.148;2024-02-15T03:22:09;8.27;;;6.63;;
10605;SDS011;5350;42.698;23.148;2024-02-15T03:24:37;9.17;;;6.90;;
10605;SDS011;5350;42.698;23.148;2024-02-15T03:27:04;9.80;;;7.50;;
10605;SDS011;5350;42.698;23.148;2024-02-15T03:29:31;7.40;;;6.40;;
10605;SDS011;5350;42.698;23.148;2024-02-15T03:32:00;8.87;;;6.20;;
10605;SDS011;5350;42.698;23.148;2024-02-15T03:34:30;9.80;;;7.20;;
10605;SDS011;5350;42.698;23.148;2024-02-15T03:36:57;9.40;;;6.83;;
10605;SDS011;5350;42.698;23.148;2024-02-15T03:39:24;10.53;;;7.20;;
10605;SDS011;5350;42.698;23.148;2024-02-15T03:41:50;9.60;;;7.03;;
10605;SDS011;5350;42.698;23.148;2024-02-15T03:44:18;8.47;;;6.67;;
10605;SDS011;5350;42.698;23.148;2024-02-15T03:46:45;10.20;;;7.43;;
10605;SDS011;5350;42.698;23.148;2024-02-15T03:49:16;9.27;;;6.87;;
10605;SDS011;5350;42.698;23.148;2024-02-15T03:51:44;10.20;;;7.20;;
10605;SDS011;5350;42.698;23.148;2024-02-15T03:54:10;8.70;;;7.10;;
10605;SDS011;5350;42.698;23.148;2024-02-15T03:56:45;10.70;;;9.00;;
10605;SDS011;5350;42.698;23.148;2024-02-15T03:59:13;11.13;;;7.17;;
10605;SDS011;5350;42.698;23.148;2024-02-15T04:01:39;8.97;;;7.20;;
10605;SDS011;5350;42.698;23.148;2024-02-15T04:04:06;7.93;;;6.60;;
10605;SDS011;5350;42.698;23.148;2024-02-15T04:06:32;8.37;;;6.73;;
10605;SDS011;5350;42.698;23.148;2024-02-15T04:09:01;11.50;;;7.47;;
10605;SDS011;5350;42.698;23.148;2024-02-15T04:11:27;10.13;;;7.50;;
10605;SDS011;5350;42.698;23.148;2024-02-15T04:13:54;9.20;;;7.27;;
10605;SDS011;5350;42.698;23.148;2024-02-15T04:16:22;9.17;;;6.90;;
10605;SDS011;5350;42.698;23.148;2024-02-15T04:18:50;8.80;;;7.30;;
10605;SDS011;5350;42.698;23.148;2024-02-15T04:21:17;11.90;;;8.07;;
10605;SDS011;5350;42.698;23.148;2024-02-15T04:23:44;9.67;;;6.70;;
10605;SDS011;5350;42.698;23.148;2024-02-15T04:26:12;11.47;;;7.37;;
10605;SDS011;5350;42.698;23.148;2024-02-15T04:28:39;9.70;;;6.90;;
10605;SDS011;5350;42.698;23.148;2024-02-15T04:31:07;10.17;;;7.30;;
10605;SDS011;5350;42.698;23.148;2024-02-15T04:33:34;10.60;;;7.27;;
10605;SDS011;5350;42.698;23.148;2024-02-15T04:36:00;9.43;;;6.90;;
10605;SDS011;5350;42.698;23.148;2024-02-15T04:38:31;8.93;;;7.23;;
10605;SDS011;5350;42.698;23.148;2024-02-15T04:40:59;8.20;;;6.77;;
10605;SDS011;5350;42.698;23.148;2024-02-15T04:43:27;8.60;;;6.67;;
10605;SDS011;5350;42.698;23.148;2024-02-15T04:45:54;9.40;;;7.37;;
10605;SDS011;5350;42.698;23.148;2024-02-15T04:48:21;9.53;;;8.10;;
10605;SDS011;5350;42.698;23.148;2024-02-15T04:50:49;12.47;;;7.63;;
10605;SDS011;5350;42.698;23.148;2024-02-15T04:53:17;11.37;;;7.83;;
10605;SDS011;5350;42.698;23.148;2024-02-15T04:55:44;9.70;;;7.07;;
10605;SDS011;5350;42.698;23.148;2024-02-15T04:58:10;9.20;;;7.10;;
10605;SDS011;5350;42.698;23.148;2024-02-15T05:00:39;9.20;;;7.30;;
10605;SDS011;5350;42.698;23.148;2024-02-15T05:03:07;8.90;;;6.87;;
10605;SDS011;5350;42.698;23.148;2024-02-15T05:05:34;9.83;;;7.10;;
10605;SDS011;5350;42.698;23.148;2024-02-15T05:08:00;10.27;;;7.07;;
10605;SDS011;5350;42.698;23.148;2024-02-15T05:10:28;9.23;;;7.33;;
10605;SDS011;5350;42.698;23.148;2024-02-15T05:12:55;9.83;;;6.83;;
10605;SDS011;5350;42.698;23.148;2024-02-15T05:15:22;9.10;;;7.40;;
10605;SDS011;5350;42.698;23.148;2024-02-15T05:17:51;8.67;;;6.67;;
10605;SDS011;5350;42.698;23.148;2024-02-15T05:20:18;11.37;;;7.60;;
10605;SDS011;5350;42.698;23.148;2024-02-15T05:22:46;12.13;;;7.17;;
10605;SDS011;5350;42.698;23.148;2024-02-15T05:25:12;9.63;;;7.47;;
10605;SDS011;5350;42.698;23.148;2024-02-15T05:27:40;10.13;;;7.23;;
10605;SDS011;5350;42.698;23.148;2024-02-15T05:30:09;11.43;;;7.90;;
10605;SDS011;5350;42.698;23.148;2024-02-15T05:32:37;11.50;;;7.63;;
10605;SDS011;5350;42.698;23.148;2024-02-15T05:35:09;9.37;;;7.20;;
10605;SDS011;5350;42.698;23.148;2024-02-15T05:37:36;9.67;;;6.97;;
10605;SDS011;5350;42.698;23.148;2024-02-15T05:40:04;10.80;;;7.60;;
10605;SDS011;5350;42.698;23.148;2024-02-15T05:42:32;12.27;;;8.87;;
10605;SDS011;5350;42.698;23.148;2024-02-15T05:45:24;10.40;;;7.90;;
10605;SDS011;5350;42.698;23.148;2024-02-15T05:48:05;9.67;;;6.93;;
10605;SDS011;5350;42.698;23.148;2024-02-15T05:50:38;11.03;;;6.60;;
10605;SDS011;5350;42.698;23.148;2024-02-15T05:53:05;10.83;;;7.80;;
10605;SDS011;5350;42.698;23.148;2024-02-15T05:55:33;10.00;;;6.83;;
10605;SDS011;5350;42.698;23.148;2024-02-15T05:58:02;10.60;;;7.57;;
10605;SDS011;5350;42.698;23.148;2024-02-15T06:00:29;8.47;;;6.67;;
10605;SDS011;5350;42.698;23.148;2024-02-15T06:02:56;8.07;;;6.87;;
10605;SDS011;5350;42.698;23.148;2024-02-15T06:05:22;9.30;;;7.03;;
10605;SDS011;5350;42.698;23.148;2024-02-15T06:07:50;11.20;;;7.23;;
10605;SDS011;5350;42.698;23.148;2024-02-15T06:10:17;9.73;;;6.47;;
10605;SDS011;5350;42.698;23.148;2024-02-15T06:12:44;18.37;;;14.20;;
10605;SDS011;5350;42.698;23.148;2024-02-15T06:15:10;10.00;;;6.50;;
10605;SDS011;5350;42.698;23.148;2024-02-15T06:17:40;10.83;;;7.30;;
10605;SDS011;5350;42.698;23.148;2024-02-15T06:20:10;8.93;;;7.43;;
10605;SDS011;5350;42.698;23.148;2024-02-15T06:22:39;7.87;;;6.17;;
10605;SDS011;5350;42.698;23.148;2024-02-15T06:25:08;7.90;;;6.07;;
10605;SDS011;5350;42.698;23.148;2024-02-15T06:27:35;9.87;;;7.00;;
10605;SDS011;5350;42.698;23.148;2024-02-15T06:30:05;11.23;;;6.97;;
10605;SDS011;5350;42.698;23.148;2024-02-15T06:32:50;8.37;;;6.00;;
10605;SDS011;5350;42.698;23.148;2024-02-15T06:35:34;8.03;;;6.13;;
10605;SDS011;5350;42.698;23.148;2024-02-15T06:38:19;9.67;;;6.90;;
10605;SDS011;5350;42.698;23.148;2024-02-15T06:41:04;8.30;;;6.07;;
10605;SDS011;5350;42.698;23.148;2024-02-15T06:43:31;8.50;;;5.87;;
10605;SDS011;5350;42.698;23.148;2024-02-15T06:45:58;10.03;;;6.83;;
10605;SDS011;5350;42.698;23.148;2024-02-15T06:48:24;8.90;;;6.30;;
10605;SDS011;5350;42.698;23.148;2024-02-15T06:50:51;8.20;;;6.23;;
10605;SDS011;5350;42.698;23.148;2024-02-15T06:53:18;9.60;;;6.47;;
10605;SDS011;5350;42.698;23.148;2024-02-15T06:55:45;9.97;;;6.70;;
10605;SDS011;5350;42.698;23.148;2024-02-15T06:58:15;11.03;;;6.57;;
10605;SDS011;5350;42.698;23.148;2024-02-15T07:00:42;9.00;;;6.30;;
10605;SDS011;5350;42.698;23.148;2024-02-15T07:03:09;8.37;;;7.13;;
10605;SDS011;5350;42.698;23.148;2024-02-15T07:05:36;9.93;;;7.40;;
10605;SDS011;5350;42.698;23.148;2024-02-15T07:08:05;9.07;;;6.60;;
10605;SDS011;5350;42.698;23.148;2024-02-15T07:10:32;9.70;;;6.17;;
10605;SDS011;5350;42.698;23.148;2024-02-15T07:12:59;8.87;;;6.33;;
10605;SDS011;5350;42.698;23.148;2024-02-15T07:15:27;12.03;;;7.53;;
10605;SDS011;5350;42.698;23.148;2024-02-15T07:17:57;8.10;;;5.63;;
10605;SDS011;5350;42.698;23.148;2024-02-15T07:20:24;9.67;;;6.47;;
10605;SDS011;5350;42.698;23.148;2024-02-15T07:22:50;11.70;;;6.20;;
10605;SDS011;5350;42.698;23.148;2024-02-15T07:25:18;9.17;;;6.10;;
10605;SDS011;5350;42.698;23.148;2024-02-15T07:27:45;10.47;;;6.73;;
10605;SDS011;5350;42.698;23.148;2024-02-15T07:30:11;8.33;;;6.20;;
10605;SDS011;5350;42.698;23.148;2024-02-15T07:32:41;8.80;;;6.13;;
10605;SDS011;5350;42.698;23.148;2024-02-15T07:35:08;8.10;;;5.77;;
10605;SDS011;5350;42.698;23.148;2024-02-15T07:37:35;8.97;;;5.90;;
10605;SDS011;5350;42.698;23.148;2024-02-15T07:40:01;9.00;;;6.00;;
10605;SDS011;5350;42.698;23.148;2024-02-15T07:42:29;7.83;;;6.00;;
10605;SDS011;5350;42.698;23.148;2024-02-15T07:44:56;9.83;;;6.30;;
10605;SDS011;5350;42.698;23.148;2024-02-15T07:47:22;6.63;;;5.57;;
10605;SDS011;5350;42.698;23.148;2024-02-15T07:49:51;8.17;;;5.97;;
10605;SDS011;5350;42.698;23.148;2024-02-15T07:52:17;10.70;;;5.90;;
10605;SDS011;5350;42.698;23.148;2024-02-15T07:54:44;7.63;;;5.30;;
10605;SDS011;5350;42.698;23.148;2024-02-15T07:57:11;7.10;;;4.57;;
10605;SDS011;5350;42.698;23.148;2024-02-15T07:59:39;9.90;;;7.47;;
10605;SDS011;5350;42.698;23.148;2024-02-15T08:02:06;9.10;;;5.30;;
10605;SDS011;5350;42.698;23.148;2024-02-15T08:04:33;7.47;;;5.57;;
10605;SDS011;5350;42.698;23.148;2024-02-15T08:07:07;8.13;;;5.70;;
10605;SDS011;5350;42.698;23.148;2024-02-15T08:09:35;9.43;;;5.37;;
10605;SDS011;5350;42.698;23.148;2024-02-15T08:12:03;9.03;;;5.67;;
10605;SDS011;5350;42.698;23.148;2024-02-15T08:14:29;6.00;;;3.90;;
10605;SDS011;5350;42.698;23.148;2024-02-15T08:16:56;6.53;;;5.23;;
10605;SDS011;5350;42.698;23.148;2024-02-15T08:19:23;6.33;;;5.00;;
10605;SDS011;5350;42.698;23.148;2024-02-15T08:21:50;6.83;;;4.43;;
10605;SDS011;5350;42.698;23.148;2024-02-15T08:24:18;10.37;;;6.40;;
10605;SDS011;5350;42.698;23.148;2024-02-15T08:26:45;6.27;;;4.63;;
10605;SDS011;5350;42.698;23.148;2024-02-15T08:29:12;5.77;;;4.43;;
10605;SDS011;5350;42.698;23.148;2024-02-15T08:31:40;6.23;;;4.27;;
10605;SDS011;5350;42.698;23.148;2024-02-15T08:34:07;7.63;;;6.03;;
10605;SDS011;5350;42.698;23.148;2024-02-15T08:36:39;10.93;;;5.70;;
10605;SDS011;5350;42.698;23.148;2024-02-15T08:39:06;7.73;;;5.63;;
10605;SDS011;5350;42.698;23.148;2024-02-15T08:41:34;6.77;;;5.10;;
10605;SDS011;5350;42.698;23.148;2024-02-15T08:44:01;6.37;;;4.70;;
10605;SDS011;5350;42.698;23.148;2024-02-15T08:46:33;6.80;;;5.03;;
10605;SDS011;5350;42.698;23.148;2024-02-15T08:49:01;11.60;;;5.97;;
10605;SDS011;5350;42.698;23.148;2024-02-15T08:51:28;6.43;;;4.97;;
10605;SDS011;5350;42.698;23.148;2024-02-15T08:53:55;5.70;;;4.70;;
10605;SDS011;5350;42.698;23.148;2024-02-15T08:56:22;6.93;;;5.00;;
10605;SDS011;5350;42.698;23.148;2024-02-15T08:58:50;6.73;;;5.23;;
10605;SDS011;5350;42.698;23.148;2024-02-15T09:01:16;6.90;;;4.93;;
10605;SDS011;5350;42.698;23.148;2024-02-15T09:03:43;6.20;;;4.83;;
10605;SDS011;5350;42.698;23.148;2024-02-15T09:06:10;5.40;;;4.13;;
10605;SDS011;5350;42.698;23.148;2024-02-15T09:08:37;5.57;;;3.83;;
10605;SDS011;5350;42.698;23.148;2024-02-15T09:11:04;5.70;;;3.83;;
10605;SDS011;5350;42.698;23.148;2024-02-15T09:13:30;5.77;;;4.20;;
10605;SDS011;5350;42.698;23.148;2024-02-15T09:15:58;5.73;;;3.90;;
10605;SDS011;5350;42.698;23.148;2024-02-15T09:18:25;6.90;;;5.07;;
10605;SDS011;5350;42.698;23.148;2024-02-15T09:20:52;6.13;;;5.07;;
10605;SDS011;5350;42.698;23.148;2024-02-15T09:23:20;6.07;;;5.13;;
10605;SDS011;5350;42.698;23.148;2024-02-15T09:25:48;8.07;;;5.80;;
10605;SDS011;5350;42.698;23.148;2024-02-15T09:28:16;7.67;;;5.97;;
10605;SDS011;5350;42.698;23.148;2024-02-15T09:30:47;7.70;;;5.27;;
10605;SDS011;5350;42.698;23.148;2024-02-15T09:33:17;9.30;;;5.60;;
10605;SDS011;5350;42.698;23.148;2024-02-15T09:35:45;8.73;;;5.20;;
10605;SDS011;5350;42.698;23.148;2024-02-15T09:38:12;7.03;;;5.30;;
10605;SDS011;5350;42.698;23.148;2024-02-15T09:40:41;6.17;;;4.20;;
10605;SDS011;5350;42.698;23.148;2024-02-15T09:43:09;7.10;;;4.53;;
10605;SDS011;5350;42.698;23.148;2024-02-15T09:45:38;6.53;;;4.63;;
10605;SDS011;5350;42.698;23.148;2024-02-15T09:48:05;5.47;;;4.90;;
10605;SDS011;5350;42.698;23.148;2024-02-15T09:50:35;5.63;;;4.53;;
10605;SDS011;5350;42.698;23.148;2024-02-15T09:53:05;7.50;;;4.67;;
10605;SDS011;5350;42.698;23.148;2024-02-15T09:55:34;8.07;;;5.63;;
10605;SDS011;5350;42.698;23.148;2024-02-15T09:58:01;6.53;;;5.07;;
10605;SDS011;5350;42.698;23.148;2024-02-15T10:00:29;5.37;;;4.33;;
10605;SDS011;5350;42.698;23.148;2024-02-15T10:02:56;5.27;;;3.93;;
10605;SDS011;5350;42.698;23.148;2024-02-15T10:05:26;6.30;;;4.23;;
10605;SDS011;5350;42.698;23.148;2024-02-15T10:07:54;5.87;;;4.60;;
10605;SDS011;5350;42.698;23.148;2024-02-15T10:10:22;4.73;;;3.83;;
10605;SDS011;5350;42.698;23.148;2024-02-15T10:12:51;5.70;;;4.20;;
10605;SDS011;5350;42.698;23.148;2024-02-15T10:15:26;5.57;;;4.70;;
10605;SDS011;5350;42.698;23.148;2024-02-15T10:17:55;5.63;;;4.80;;
10605;SDS011;5350;42.698;23.148;2024-02-15T10:20:22;4.77;;;4.10;;
10605;SDS011;5350;42.698;23.148;2024-02-15T10:22:51;5.47;;;4.20;;
10605;SDS011;5350;42.698;23.148;2024-02-15T10:25:20;6.70;;;4.60;;
10605;SDS011;5350;42.698;23.148;2024-02-15T10:27:47;5.73;;;4.07;;
10605;SDS011;5350;42.698;23.148;2024-02-15T10:30:14;5.90;;;4.30;;
10605;SDS011;5350;42.698;23.148;2024-02-15T10:32:42;6.60;;;4.10;;
10605;SDS011;5350;42.698;23.148;2024-02-15T10:35:09;5.97;;;4.37;;
10605;SDS011;5350;42.698;23.148;2024-02-15T10:37:40;5.13;;;3.83;;
10605;SDS011;5350;42.698;23.148;2024-02-15T10:40:07;4.53;;;3.87;;
10605;SDS011;5350;42.698;23.148;2024-02-15T10:42:36;5.93;;;4.53;;
10605;SDS011;5350;42.698;23.148;2024-02-15T10:45:03;4.57;;;4.10;;
10605;SDS011;5350;42.698;23.148;2024-02-15T10:47:30;5.03;;;3.60;;
10605;SDS011;5350;42.698;23.148;2024-02-15T10:49:57;5.17;;;3.80;;
10605;SDS011;5350;42.698;23.148;2024-02-15T10:52:24;5.07;;;4.20;;
10605;SDS011;5350;42.698;23.148;2024-02-15T10:54:56;5.43;;;3.93;;
10605;SDS011;5350;42.698;23.148;2024-02-15T10:57:30;5.03;;;4.03;;
10605;SDS011;5350;42.698;23.148;2024-02-15T11:00:00;5.43;;;4.50;;
10605;SDS011;5350;42.698;23.148;2024-02-15T11:02:37;5.83;;;4.03;;
10605;SDS011;5350;42.698;23.148;2024-02-15T11:05:06;4.53;;;3.77;;
10605;SDS011;5350;42.698;23.148;2024-02-15T11:07:35;3.80;;;3.40;;
10605;SDS011;5350;42.698;23.148;2024-02-15T11:10:02;5.73;;;4.30;;
10605;SDS011;5350;42.698;23.148;2024-02-15T11:12:33;4.80;;;3.90;;
10605;SDS011;5350;42.698;23.148;2024-02-15T11:15:02;6.40;;;3.90;;
10605;SDS011;5350;42.698;23.148;2024-02-15T11:17:45;5.77;;;4.30;;
10605;SDS011;5350;42.698;23.148;2024-02-15T11:23:24;6.33;;;4.90;;
10605;SDS011;5350;42.698;23.148;2024-02-15T11:25:53;4.87;;;3.90;;
10605;SDS011;5350;42.698;23.148;2024-02-15T11:28:37;6.07;;;4.17;;
10605;SDS011;5350;42.698;23.148;2024-02-15T11:31:10;5.67;;;3.87;;
10605;SDS011;5350;42.698;23.148;2024-02-15T11:33:58;6.10;;;3.57;;
10605;SDS011;5350;42.698;23.148;2024-02-15T11:36:30;4.57;;;3.73;;
10605;SDS011;5350;42.698;23.148;2024-02-15T11:38:57;7.60;;;3.87;;
10605;SDS011;5350;42.698;23.148;2024-02-15T11:41:24;5.10;;;4.33;;
10605;SDS011;5350;42.698;23.148;2024-02-15T11:43:51;6.77;;;3.80;;
10605;SDS011;5350;42.698;23.148;2024-02-15T11:46:23;7.30;;;4.97;;
10605;SDS011;5350;42.698;23.148;2024-02-15T11:48:51;5.57;;;4.43;;
10605;SDS011;5350;42.698;23.148;2024-02-15T11:51:28;13.47;;;4.77;;
10605;SDS011;5350;42.698;23.148;2024-02-15T11:54:01;10.83;;;4.40;;
10605;SDS011;5350;42.698;23.148;2024-02-15T11:56:32;5.43;;;4.63;;
10605;SDS011;5350;42.698;23.148;2024-02-15T11:59:16;6.37;;;4.53;;
10605;SDS011;5350;42.698;23.148;2024-02-15T12:01:55;6.50;;;4.80;;
10605;SDS011;5350;42.698;23.148;2024-02-15T12:04:40;6.43;;;4.90;;
10605;SDS011;5350;42.698;23.148;2024-02-15T12:07:24;6.33;;;5.27;;
10605;SDS011;5350;42.698;23.148;2024-02-15T12:10:14;5.17;;;4.00;;
10605;SDS011;5350;42.698;23.148;2024-02-15T12:12:59;4.97;;;4.37;;
10605;SDS011;5350;42.698;23.148;2024-02-15T12:15:55;7.67;;;4.83;;
10605;SDS011;5350;42.698;23.148;2024-02-15T12:18:41;5.07;;;4.57;;
10605;SDS011;5350;42.698;23.148;2024-02-15T12:21:10;5.00;;;3.40;;
10605;SDS011;5350;42.698;23.148;2024-02-15T12:23:40;5.10;;;4.60;;
10605;SDS011;5350;42.698;23.148;2024-02-15T12:26:07;4.93;;;4.43;;
10605;SDS011;5350;42.698;23.148;2024-02-15T12:28:34;4.63;;;3.73;;
10605;SDS011;5350;42.698;23.148;2024-02-15T12:31:01;6.10;;;4.70;;
10605;SDS011;5350;42.698;23.148;2024-02-15T12:33:31;5.97;;;4.47;;
10605;SDS011;5350;42.698;23.148;2024-02-15T12:36:07;4.63;;;4.20;;
10605;SDS011;5350;42.698;23.148;2024-02-15T12:38:34;6.27;;;3.90;;
10605;SDS011;5350;42.698;23.148;2024-02-15T12:41:03;6.43;;;4.50;;
10605;SDS011;5350;42.698;23.148;2024-02-15T12:43:30;5.32;;;4.20;;
10605;SDS011;5350;42.698;23.148;2024-02-15T12:45:57;5.63;;;3.83;;
10605;SDS011;5350;42.698;23.148;2024-02-15T12:48:24;6.67;;;4.17;;
10605;SDS011;5350;42.698;23.148;2024-02-15T12:50:51;4.47;;;4.07;;
10605;SDS011;5350;42.698;23.148;2024-02-15T12:53:23;2.87;;;2.67;;
10605;SDS011;5350;42.698;23.148;2024-02-15T12:55:54;4.77;;;3.70;;
10605;SDS011;5350;42.698;23.148;2024-02-15T12:58:22;3.93;;;3.50;;
10605;SDS011;5350;42.698;23.148;2024-02-15T13:00:54;3.97;;;2.60;;
10605;SDS011;5350;42.698;23.148;2024-02-15T13:03:23;5.87;;;3.20;;
10605;SDS011;5350;42.698;23.148;2024-02-15T13:05:51;4.63;;;3.60;;
10605;SDS011;5350;42.698;23.148;2024-02-15T13:08:17;5.77;;;3.53;;
10605;SDS011;5350;42.698;23.148;2024-02-15T13:10:46;4.50;;;3.50;;
10605;SDS011;5350;42.698;23.148;2024-02-15T13:13:13;3.80;;;3.50;;
10605;SDS011;5350;42.698;23.148;2024-02-15T13:15:41;4.53;;;3.90;;
10605;SDS011;5350;42.698;23.148;2024-02-15T13:18:09;4.20;;;3.50;;
10605;SDS011;5350;42.698;23.148;2024-02-15T13:20:36;4.00;;;3.50;;
10605;SDS011;5350;42.698;23.148;2024-02-15T13:23:03;5.17;;;4.67;;
10605;SDS011;5350;42.698;23.148;2024-02-15T13:25:34;4.73;;;3.40;;
10605;SDS011;5350;42.698;23.148;2024-02-15T13:28:02;4.40;;;4.00;;
10605;SDS011;5350;42.698;23.148;2024-02-15T13:30:30;5.78;;;3.90;;
10605;SDS011;5350;42.698;23.148;2024-02-15T13:32:57;4.13;;;3.72;;
10605;SDS011;5350;42.698;23.148;2024-02-15T13:35:24;5.30;;;3.78;;
10605;SDS011;5350;42.698;23.148;2024-02-15T13:37:51;5.45;;;4.00;;
10605;SDS011;5350;42.698;23.148;2024-02-15T13:40:19;3.63;;;3.33;;
10605;SDS011;5350;42.698;23.148;2024-02-15T13:42:48;4.45;;;4.05;;
10605;SDS011;5350;42.698;23.148;2024-02-15T13:45:19;3.45;;;3.13;;
10605;SDS011;5350;42.698;23.148;2024-02-15T13:47:47;4.38;;;3.97;;
10605;SDS011;5350;42.698;23.148;2024-02-15T13:50:15;5.95;;;3.83;;
10605;SDS011;5350;42.698;23.148;2024-02-15T13:52:43;4.43;;;3.95;;
10605;SDS011;5350;42.698;23.148;2024-02-15T13:55:10;4.32;;;3.90;;
10605;SDS011;5350;42.698;23.148;2024-02-15T13:57:39;4.43;;;4.00;;
10605;SDS011;5350;42.698;23.148;2024-02-15T14:00:07;4.45;;;3.88;;
10605;SDS011;5350;42.698;23.148;2024-02-15T14:02:39;4.30;;;3.28;;
10605;SDS011;5350;42.698;23.148;2024-02-15T14:05:08;5.20;;;3.47;;
10605;SDS011;5350;42.698;23.148;2024-02-15T14:07:36;3.78;;;3.38;;
10605;SDS011;5350;42.698;23.148;2024-02-15T14:10:04;5.93;;;3.40;;
10605;SDS011;5350;42.698;23.148;2024-02-15T14:12:32;7.90;;;4.95;;
10605;SDS011;5350;42.698;23.148;2024-02-15T14:14:59;6.15;;;3.63;;
10605;SDS011;5350;42.698;23.148;2024-02-15T14:17:26;4.03;;;3.58;;
10605;SDS011;5350;42.698;23.148;2024-02-15T14:19:54;6.93;;;3.95;;
10605;SDS011;5350;42.698;23.148;2024-02-15T14:22:22;5.28;;;3.50;;
10605;SDS011;5350;42.698;23.148;2024-02-15T14:24:53;5.28;;;3.33;;
10605;SDS011;5350;42.698;23.148;2024-02-15T14:27:20;5.10;;;3.40;;
10605;SDS011;5350;42.698;23.148;2024-02-15T14:29:47;4.68;;;3.30;;
10605;SDS011;5350;42.698;23.148;2024-02-15T14:32:27;3.38;;;2.97;;
10605;SDS011;5350;42.698;23.148;2024-02-15T14:35:13;4.53;;;3.63;;
10605;SDS011;5350;42.698;23.148;2024-02-15T14:37:42;4.38;;;3.35;;
10605;SDS011;5350;42.698;23.148;2024-02-15T14:40:09;4.47;;;3.53;;
10605;SDS011;5350;42.698;23.148;2024-02-15T14:42:39;3.85;;;3.45;;
10605;SDS011;5350;42.698;23.148;2024-02-15T14:45:07;4.07;;;3.55;;
10605;SDS011;5350;42.698;23.148;2024-02-15T14:47:34;4.00;;;3.60;;
10605;SDS011;5350;42.698;23.148;2024-02-15T14:50:01;5.00;;;3.55;;
10605;SDS011;5350;42.698;23.148;2024-02-15T14:52:30;5.67;;;3.43;;
10605;SDS011;5350;42.698;23.148;2024-02-15T14:54:57;5.27;;;3.77;;
10605;SDS011;5350;42.698;23.148;2024-02-15T14:57:23;3.80;;;3.50;;